• Join FlightAware (Why Join?)
  • Login
  • US Flag 
08:50PM EDT


 

Airport Tracker/Info


-or-


 

Live Flight TrackerFlight Track Log ✈ LAK974 ✈ 05-May-2013 ✈ KSDF - KMMU

Flight Track Log - Related Links

Times and Time Zones

All times are in EDT time to prevent confusion due to time zone crossing. See the LAK974 flight status page for this flight to view local times or setup timezone preferences in your user account.

Time Position Orientation Groundspeed Altitude Reporting Facility
EDT Latitude Longitude Course Direction KTS MPH feet Rate Location/Type
11:07AM 38.1094 -85.8317 335° Northwest 240 276 5,700  Level Indianapolis Center
11:08AM 38.0972 -85.9219 260° West 265 305 7,000 1,320 Climbing Indianapolis Center
11:09AM 38.1703 -85.9597 338° Northwest 287 330 8,500 1,860 Climbing Indianapolis Center
11:10AM 38.2525 -85.9628 358° North 293 337 10,900 2,220 Climbing Indianapolis Center
11:11AM 38.3339 -85.9700 356° North 293 337 13,100 2,340 Climbing Indianapolis Center
11:12AM 38.2377 -85.6693 335° Northwest  Level FlightAware Approximate
11:12AM 38.4369 -85.9789 356° North 306 352 15,700  Level Indianapolis Center
11:13AM 38.5308 -85.9878 356° North 342 394 16,000 780 Climbing Indianapolis Center
11:14AM 38.6356 -85.9994 355° North 373 429 17,400 1,680 Climbing Indianapolis Center
11:15AM 38.7328 -86.0089 356° North 355 409 19,500 1,980 Climbing Indianapolis Center
11:16AM 38.8108 -85.9614 25° Northeast 317 365 21,600 2,040 Climbing Indianapolis Center
11:17AM 38.8817 -85.8767 43° Northeast 308 354 23,800 1,800 Climbing Indianapolis Center
11:18AM 38.9408 -85.7997 45° Northeast 305 351 25,400 1,560 Climbing Indianapolis Center
11:19AM 39.0022 -85.7242 44° Northeast 307 353 27,000 1,560 Climbing Indianapolis Center
11:20AM 39.0619 -85.6475 45° Northeast 306 352 28,600 1,500 Climbing Indianapolis Center
11:21AM 39.1231 -85.5708 44° Northeast 307 353 30,100 1,260 Climbing Indianapolis Center
11:22AM 39.1950 -85.4747 46° Northeast 313 360 31,300 1,020 Climbing Indianapolis Center
11:23AM 39.2619 -85.3911 44° Northeast 333 383 32,300 960 Climbing Indianapolis Center
11:25AM 39.3286 -85.3044 45° Northeast 340 391 33,300 960 Climbing Indianapolis Center
11:26AM 39.3978 -85.2158 45° Northeast 351 404 34,300 960 Climbing Indianapolis Center
11:27AM 39.4686 -85.1247 45° Northeast 360 414 35,300 960 Climbing Indianapolis Center
11:28AM 39.5394 -85.0325 45° Northeast 364 419 36,300 1,020 Climbing Indianapolis Center
11:29AM 39.6228 -84.9231 45° Northeast 357 411 37,500 960 Climbing Indianapolis Center
11:30AM 39.6914 -84.8342 45° Northeast 359 413 38,400 720 Climbing Indianapolis Center
11:31AM 39.7606 -84.7442 45° Northeast 353 406 39,100 600 Climbing Indianapolis Center
11:32AM 39.8292 -84.6519 46° Northeast 352 405 39,700 540 Climbing Indianapolis Center
11:33AM 39.8992 -84.5600 45° Northeast 353 406 40,300 540 Climbing Indianapolis Center
11:34AM 39.9686 -84.4667 46° Northeast 353 406 40,900 300 Climbing Indianapolis Center
11:35AM 40.0519 -84.3561 45° Northeast 362 417 41,000  Climbing Indianapolis Center
11:36AM 40.1256 -84.2578 46° Northeast 372 428 41,000  Level Indianapolis Center
11:37AM 40.2028 -84.1569 45° Northeast 385 443 41,000  Level Indianapolis Center
11:38AM 40.2786 -84.0539 46° Northeast 388 447 41,000  Level Indianapolis Center
11:39AM 40.3481 -83.9444 50° Northeast 386 444 41,000  Level Indianapolis Center
11:40AM 40.4131 -83.8261 54° Northeast 392 451 41,000  Level Indianapolis Center
11:41AM 40.4811 -83.7119 52° Northeast 392 451 41,000 -60 Level Indianapolis Center
11:42AM 40.5478 -83.5939 53° Northeast 395 455 40,900  Descending Indianapolis Center
11:43AM 40.6153 -83.4767 53° Northeast 399 459 41,000 60 Climbing Indianapolis Center
11:44AM 40.6431 -83.4044 63° Northeast 398 458 41,000  Level Cleveland Center
11:45AM 40.6733 -83.2689 74° East 385 443 41,000  Level Cleveland Center
11:46AM 40.7058 -83.1303 73° East 385 443 41,000  Level Cleveland Center
11:47AM 40.7400 -82.9947 72° East 385 443 41,000  Level Cleveland Center
11:48AM 40.7742 -82.8561 72° East 385 443 41,000  Level Cleveland Center
11:49AM 40.8014 -82.7336 74° East 385 443 41,000  Level Cleveland Center
11:50AM 40.8353 -82.5947 72° East 391 450 41,000  Level Cleveland Center
11:51AM 40.8689 -82.4583 72° East 396 456 41,000  Level Cleveland Center
11:52AM 40.9022 -82.3192 72° East 396 456 41,000  Level Cleveland Center
11:53AM 40.9336 -82.1800 73° East 396 456 41,000  Level Cleveland Center
11:54AM 40.9689 -82.0297 73° East 396 456 41,000  Level Cleveland Center
11:55AM 41.0019 -81.8900 73° East 391 450 41,000  Level Cleveland Center
11:56AM 41.0347 -81.7503 73° East 391 450 41,000  Level Cleveland Center
11:57AM 41.0653 -81.6131 74° East 391 450 41,000  Level Cleveland Center
11:58AM 41.0975 -81.4758 73° East 391 450 41,000  Level Cleveland Center
11:59AM 41.1300 -81.3383 73° East 396 456 41,000  Level Cleveland Center
12:00PM 41.1619 -81.2008 73° East 396 456 41,000  Level Cleveland Center
12:01PM 41.1919 -81.0606 74° East 390 449 41,000  Level Cleveland Center
12:02PM 41.2236 -80.9200 73° East 395 455 41,000  Level Cleveland Center
12:03PM 41.2553 -80.7847 73° East 395 455 41,000  Level Cleveland Center
12:04PM 41.2867 -80.6439 73° East 395 455 41,000  Level Cleveland Center
12:05PM 41.3158 -80.5031 75° East 395 455 41,000  Level Cleveland Center
12:06PM 41.3469 -80.3675 73° East 390 449 41,000  Level Cleveland Center
12:07PM 41.3778 -80.2289 73° East 390 449 41,000  Level Cleveland Center
12:08PM 41.4086 -80.0903 73° East 390 449 41,000  Level Cleveland Center
12:09PM 41.4350 -79.9711 74° East 385 443 41,000  Level Cleveland Center
12:10PM 41.4636 -79.8294 75° East 379 436 41,000  Level Cleveland Center
12:11PM 41.4917 -79.6906 75° East 379 436 41,000  Level Cleveland Center
12:12PM 41.5217 -79.5542 74° East 379 436 41,000  Level Cleveland Center
12:13PM 41.5517 -79.4150 74° East 379 436 41,000  Level Cleveland Center
12:14PM 41.5814 -79.2758 74° East 379 436 41,000  Level Cleveland Center
12:15PM 41.6089 -79.1336 75° East 379 436 41,000  Level Cleveland Center
12:16PM 41.6383 -78.9967 74° East 379 436 41,000  Level Cleveland Center
12:17PM 41.6656 -78.8569 75° East 379 436 41,000  Level Cleveland Center
12:18PM 41.6928 -78.7200 75° East 379 436 41,000  Level Cleveland Center
12:19PM 41.7172 -78.5747 77° East 381 438 41,000 -480 Level Cleveland Center
12:21PM 41.7397 -78.2547 85° East 393 452 39,600 -840 Descending New York Center
12:22PM 41.7494 -78.1000 85° East 406 467 38,500 -1,200 Descending New York Center
12:23PM 41.7608 -77.9483 84° East 406 467 37,300 -1,200 Descending New York Center
12:24PM 41.7697 -77.7989 85° East 406 467 36,200 -1,140 Descending New York Center
12:25PM 41.7786 -77.6442 86° East 406 467 35,100 -600 Descending New York Center
12:26PM 41.7706 -77.4931 94° East 401 461 35,000 -60 Descending New York Center
12:27PM 41.7328 -77.3503 109° East 401 461 35,000  Level New York Center
12:28PM 41.6928 -77.2044 110° East 406 467 35,000  Level New York Center
12:29PM 41.6547 -77.0592 109° East 411 473 35,000 -720 Level New York Center
12:30PM 41.6125 -76.9139 111° Southeast 416 479 33,700 -1,620 Descending New York Center
12:31PM 41.5739 -76.7744 110° East 416 479 31,800 -1,740 Descending New York Center
12:32PM 41.5386 -76.6464 110° East 416 479 30,300 -1,740 Descending New York Center
12:33PM 41.4997 -76.5044 110° East 416 479 28,500 -1,740 Descending New York Center
12:34PM 41.4644 -76.3714 109° East 401 461 26,800 -1,800 Descending New York Center
12:35PM 41.4247 -76.2353 111° Southeast 391 450 24,900 -1,740 Descending New York Center
12:36PM 41.3908 -76.1108 110° East 378 435 23,300 -1,620 Descending New York Center
12:37PM 41.3531 -75.9808 111° Southeast 356 410 21,700 -1,620 Descending New York Center
12:38PM 41.3225 -75.8650 109° East 337 388 20,100 -1,620 Descending New York Center
12:39PM 41.2881 -75.7492 112° Southeast 337 388 18,500 -1,500 Descending New York Center
12:40PM 41.2550 -75.6364 111° Southeast 337 388 17,200 -1,440 Descending New York Center
12:41PM 41.2197 -75.5372 115° Southeast 331 381 15,600 -1,680 Descending New York Center
12:42PM 41.1806 -75.4189 114° Southeast 326 375 13,900 -1,800 Descending New York Center
12:43PM 41.1469 -75.3172 114° Southeast 315 362 12,100 -1,740 Descending New York Center
12:44PM 41.1114 -75.2158 115° Southeast 304 350 10,400 -1,740 Descending New York Center
12:45PM 41.0853 -75.1342 113° Southeast 284 327 8,600 -1,800 Descending New York Center
12:46PM 41.0550 -75.0442 114° Southeast 267 307 6,800 -1,320 Descending New York Center
12:47PM 41.0267 -74.9628 115° Southeast 253 291 6,000 -360 Descending New York Center
12:48PM 40.9817 -74.8858 128° Southeast 238 274 6,100  Climbing New York Center
12:49PM 40.9333 -74.8389 144° Southeast 248 285 6,100 -540 Level New York Center
12:50PM 40.8686 -74.7772 144° Southeast 260 299 5,100 -1,080 Descending New York Center
12:51PM 40.8183 -74.7278 143° Southeast 260 299 4,000 -1,080 Descending New York Center
12:52PM 40.7728 -74.6567 130° Southeast 250 288 3,000 -840 Descending New York Center
12:53PM 40.7583 -74.5872 105° East 224 258 2,400 -720 Descending New York Center
12:53PM 40.7500 -74.5500 106° East 216 249 2,100 -540 Descending New York TRACON
12:54PM 40.7333 -74.4833 108° East 198 228 1,700 -600 Descending New York TRACON
12:55PM 40.7667 -74.4333 49° Northeast 150 173 900 1,620 Descending New York TRACON
12:57PM 40.7800 -74.4294 12° North 210 242 6,000 1,380 Climbing New York Center
12:59PM 40.7800 -74.4294 270° West 210 242 6,000  Level New York Center
01:01PM 40.7833 -74.4000 37° Northeast  Level FlightAware Approximate
01:08PM 40.7993 -74.4149 37° Northeast  Level Estimated